Time;durP1;ratioP1;P1;durP2;ratioP2;P2;SDS_P1;SDS_P2;PMS_P1;PMS_P2;Temp;Humidity;BMP_temperature;BMP_pressure;BME280_temperature;BME280_humidity;BME280_pressure;Samples;Min_cycle;Max_cycle;Signal;HPM_P1;HPM_P2
2024/03/13 00:01:37;;;;;;;24.17;12.40;;;;;;;;;;5092676;28;20038;-58
2024/03/13 00:04:05;;;;;;;22.27;11.75;;;;;;;;;;5079619;28;20032;-55
2024/03/13 00:06:31;;;;;;;27.33;13.40;;;;;;;;;;5090338;28;20431;-56
2024/03/13 00:08:59;;;;;;;23.20;12.35;;;;;;;;;;5086575;28;20031;-55
2024/03/13 00:11:27;;;;;;;23.85;11.98;;;;;;;;;;5087458;28;20080;-56
2024/03/13 00:13:55;;;;;;;25.08;13.10;;;;;;;;;;5092396;28;20092;-56
2024/03/13 00:16:21;;;;;;;27.25;14.05;;;;;;;;;;5079654;28;20024;-56
2024/03/13 00:18:46;;;;;;;26.15;13.02;;;;;;;;;;5084090;28;20048;-56
2024/03/13 00:21:12;;;;;;;25.83;13.00;;;;;;;;;;5080372;28;20522;-57
2024/03/13 00:23:39;;;;;;;23.80;12.90;;;;;;;;;;5088812;28;20455;-56
2024/03/13 00:26:05;;;;;;;25.20;13.05;;;;;;;;;;5092320;28;20505;-56
2024/03/13 00:28:31;;;;;;;26.90;13.40;;;;;;;;;;5081000;28;20024;-56
2024/03/13 00:30:58;;;;;;;27.92;13.80;;;;;;;;;;5091908;28;20426;-56
2024/03/13 00:33:25;;;;;;;29.13;13.70;;;;;;;;;;5084501;28;20035;-56
2024/03/13 00:35:54;;;;;;;23.70;12.32;;;;;;;;;;5091963;28;20101;-56
2024/03/13 00:38:21;;;;;;;27.35;13.55;;;;;;;;;;5092461;28;20020;-56
2024/03/13 00:40:48;;;;;;;27.23;12.73;;;;;;;;;;5093344;28;20039;-55
2024/03/13 00:43:14;;;;;;;23.83;13.35;;;;;;;;;;5092016;28;20106;-56
2024/03/13 00:45:40;;;;;;;27.67;12.73;;;;;;;;;;5085144;28;20036;-56
2024/03/13 00:48:07;;;;;;;26.08;13.35;;;;;;;;;;5087868;28;20024;-56
2024/03/13 00:50:33;;;;;;;27.08;12.75;;;;;;;;;;5091894;28;20542;-56
2024/03/13 00:52:59;;;;;;;28.00;14.20;;;;;;;;;;5091749;28;20032;-56
2024/03/13 00:55:27;;;;;;;26.92;13.20;;;;;;;;;;5091838;28;20035;-56
2024/03/13 00:57:53;;;;;;;25.42;12.68;;;;;;;;;;5093157;28;20028;-56
2024/03/13 01:00:21;;;;;;;27.90;14.23;;;;;;;;;;5090086;28;20047;-56
2024/03/13 01:02:47;;;;;;;26.15;13.82;;;;;;;;;;5089203;28;20118;-56
2024/03/13 01:05:15;;;;;;;23.92;13.00;;;;;;;;;;5087713;28;20028;-56
2024/03/13 01:07:41;;;;;;;27.02;12.90;;;;;;;;;;5086750;28;20032;-56
2024/03/13 01:10:08;;;;;;;28.20;14.07;;;;;;;;;;5081824;28;20039;-56
2024/03/13 01:12:34;;;;;;;29.95;14.73;;;;;;;;;;5087729;28;20384;-56
2024/03/13 01:15:00;;;;;;;28.77;14.45;;;;;;;;;;5091469;28;20020;-56
2024/03/13 01:17:26;;;;;;;28.08;14.10;;;;;;;;;;5090047;28;20024;-56
2024/03/13 01:19:52;;;;;;;27.92;13.90;;;;;;;;;;5090680;28;20505;-55
2024/03/13 01:22:22;;;;;;;26.58;14.07;;;;;;;;;;5091196;28;20032;-56
2024/03/13 01:24:48;;;;;;;28.00;13.82;;;;;;;;;;5091587;28;20488;-56
2024/03/13 01:27:14;;;;;;;29.15;15.10;;;;;;;;;;5090079;28;20035;-57
2024/03/13 01:29:46;;;;;;;27.25;14.50;;;;;;;;;;5091616;28;20442;-56
2024/03/13 01:32:14;;;;;;;25.35;12.90;;;;;;;;;;5091039;28;20027;-56
2024/03/13 01:34:40;;;;;;;32.28;14.40;;;;;;;;;;5091613;28;20058;-56
2024/03/13 01:39:51;;;;;;;27.48;13.20;;;;;;;;;;5090090;28;20050;-56
2024/03/13 01:56:27;;;;;;;26.83;12.90;;;;;;;;;;5088270;28;20110;-56
2024/03/13 01:59:03;;;;;;;27.88;13.95;;;;;;;;;;5094884;28;20047;-55
2024/03/13 02:04:17;;;;;;;30.30;14.85;;;;;;;;;;5094476;28;20066;-55
2024/03/13 02:06:45;;;;;;;32.25;15.65;;;;;;;;;;5091053;28;20032;-54
2024/03/13 02:09:11;;;;;;;29.20;14.57;;;;;;;;;;5089964;28;20424;-56
2024/03/13 02:11:37;;;;;;;31.52;14.50;;;;;;;;;;5094684;28;20024;-55
2024/03/13 02:14:04;;;;;;;32.60;16.50;;;;;;;;;;5094130;28;20055;-54
2024/03/13 02:16:30;;;;;;;27.60;14.05;;;;;;;;;;5094960;28;20028;-52
2024/03/13 02:18:58;;;;;;;27.20;13.65;;;;;;;;;;5093071;28;20499;-52
2024/03/13 02:21:24;;;;;;;29.90;14.18;;;;;;;;;;5092829;28;20096;-53
2024/03/13 02:23:50;;;;;;;30.33;15.10;;;;;;;;;;5089336;28;20034;-54
2024/03/13 02:26:16;;;;;;;35.50;15.38;;;;;;;;;;5094079;28;20024;-54
2024/03/13 02:28:42;;;;;;;30.73;14.32;;;;;;;;;;5095198;28;20106;-56
2024/03/13 02:31:08;;;;;;;32.72;15.02;;;;;;;;;;5094528;28;20032;-55
2024/03/13 02:33:35;;;;;;;29.85;15.57;;;;;;;;;;5092553;28;20485;-55
2024/03/13 02:36:03;;;;;;;32.85;16.23;;;;;;;;;;5094460;28;20502;-54
2024/03/13 02:38:29;;;;;;;25.92;13.23;;;;;;;;;;5094385;28;20036;-53
2024/03/13 02:40:55;;;;;;;28.58;14.55;;;;;;;;;;5093680;28;20020;-54
2024/03/13 02:43:21;;;;;;;32.45;14.88;;;;;;;;;;5088250;28;20434;-53
2024/03/13 02:45:47;;;;;;;28.80;13.80;;;;;;;;;;5094239;28;20028;-55
2024/03/13 02:48:15;;;;;;;27.75;14.55;;;;;;;;;;5091399;28;20567;-53
2024/03/13 02:50:42;;;;;;;29.50;14.45;;;;;;;;;;5094173;28;20032;-55
2024/03/13 02:53:08;;;;;;;31.42;15.25;;;;;;;;;;5092404;28;20074;-52
2024/03/13 02:55:37;;;;;;;30.73;13.98;;;;;;;;;;5074630;28;20028;-54
2024/03/13 02:58:03;;;;;;;31.52;14.85;;;;;;;;;;5089185;28;20158;-53
2024/03/13 03:00:29;;;;;;;35.65;16.10;;;;;;;;;;5091359;28;20028;-53
2024/03/13 03:02:56;;;;;;;28.85;14.15;;;;;;;;;;5088677;28;20035;-55
2024/03/13 03:05:22;;;;;;;33.15;16.08;;;;;;;;;;5090027;28;20038;-56
2024/03/13 03:07:48;;;;;;;29.23;16.08;;;;;;;;;;5083625;28;20032;-56
2024/03/13 03:10:15;;;;;;;31.17;15.65;;;;;;;;;;5093545;28;20032;-56
2024/03/13 03:12:42;;;;;;;32.17;15.45;;;;;;;;;;5093345;28;20024;-56
2024/03/13 03:15:09;;;;;;;31.52;14.93;;;;;;;;;;5093642;28;20028;-56
2024/03/13 03:17:34;;;;;;;29.52;14.25;;;;;;;;;;5093076;28;20053;-56
2024/03/13 03:20:00;;;;;;;31.63;16.08;;;;;;;;;;5091529;28;20058;-55
2024/03/13 03:22:26;;;;;;;30.42;15.70;;;;;;;;;;5092291;28;20043;-55
2024/03/13 03:24:55;;;;;;;30.33;15.63;;;;;;;;;;5077488;28;20542;-55
2024/03/13 03:27:21;;;;;;;32.83;15.13;;;;;;;;;;5073162;28;20021;-55
2024/03/13 03:29:47;;;;;;;32.75;15.50;;;;;;;;;;5072830;28;20024;-56
2024/03/13 03:32:14;;;;;;;33.22;14.80;;;;;;;;;;5074694;28;20037;-55
2024/03/13 03:34:40;;;;;;;30.77;14.65;;;;;;;;;;5079541;28;20032;-56
2024/03/13 03:37:07;;;;;;;34.33;15.00;;;;;;;;;;5106068;28;20067;-55
2024/03/13 03:39:39;;;;;;;32.25;15.15;;;;;;;;;;5113481;28;20395;-56
2024/03/13 03:42:06;;;;;;;34.55;15.98;;;;;;;;;;5113092;28;20479;-56
2024/03/13 03:44:32;;;;;;;36.55;17.02;;;;;;;;;;5100179;28;20104;-55
2024/03/13 03:46:58;;;;;;;35.17;16.35;;;;;;;;;;5072655;28;20362;-55
2024/03/13 03:49:25;;;;;;;33.28;15.55;;;;;;;;;;5084528;28;20016;-55
2024/03/13 03:51:51;;;;;;;39.13;16.45;;;;;;;;;;5092720;28;20028;-56
2024/03/13 03:54:17;;;;;;;34.33;15.90;;;;;;;;;;5087825;28;20033;-56
2024/03/13 03:56:43;;;;;;;35.47;15.73;;;;;;;;;;5072269;28;20041;-56
2024/03/13 03:59:09;;;;;;;33.63;16.65;;;;;;;;;;5072523;28;20093;-55
2024/03/13 04:01:35;;;;;;;40.38;16.27;;;;;;;;;;5092911;28;20036;-55
2024/03/13 04:04:03;;;;;;;33.92;15.00;;;;;;;;;;5091457;28;20073;-55
2024/03/13 04:06:29;;;;;;;31.13;15.43;;;;;;;;;;5090441;28;20027;-56
2024/03/13 04:08:55;;;;;;;32.88;15.25;;;;;;;;;;5092515;28;20024;-56
2024/03/13 04:11:21;;;;;;;34.17;15.52;;;;;;;;;;5094291;28;20055;-55
2024/03/13 04:13:47;;;;;;;36.00;17.67;;;;;;;;;;5091784;28;20032;-56
2024/03/13 04:16:16;;;;;;;38.75;16.20;;;;;;;;;;5092624;28;20024;-55
2024/03/13 04:18:43;;;;;;;37.38;17.70;;;;;;;;;;5091037;28;20071;-56
2024/03/13 04:21:09;;;;;;;35.17;16.38;;;;;;;;;;5092466;28;20519;-58
2024/03/13 04:23:35;;;;;;;33.80;15.60;;;;;;;;;;5086830;28;20059;-57
2024/03/13 04:26:03;;;;;;;35.22;15.60;;;;;;;;;;5091719;28;20053;-58
2024/03/13 04:28:30;;;;;;;35.95;16.45;;;;;;;;;;5091010;28;20122;-54
2024/03/13 04:30:55;;;;;;;34.55;15.77;;;;;;;;;;5092300;28;20070;-54
2024/03/13 04:33:22;;;;;;;34.33;16.00;;;;;;;;;;5090119;28;20024;-54
2024/03/13 04:35:48;;;;;;;34.53;15.82;;;;;;;;;;5082497;28;20020;-54
2024/03/13 04:38:15;;;;;;;35.30;16.15;;;;;;;;;;5112625;28;20026;-56
2024/03/13 04:40:43;;;;;;;33.38;15.43;;;;;;;;;;5094220;28;20492;-54
2024/03/13 04:43:09;;;;;;;36.33;15.90;;;;;;;;;;5091775;28;20059;-54
2024/03/13 04:45:38;;;;;;;38.58;17.13;;;;;;;;;;5091240;28;20412;-55
2024/03/13 04:48:07;;;;;;;36.20;15.50;;;;;;;;;;5089133;28;20024;-54
2024/03/13 04:50:38;;;;;;;35.17;15.60;;;;;;;;;;5077030;28;20043;-55
2024/03/13 04:53:04;;;;;;;38.38;16.58;;;;;;;;;;5084949;28;20036;-54
2024/03/13 04:55:30;;;;;;;32.38;15.70;;;;;;;;;;5082869;28;20078;-54
2024/03/13 04:57:59;;;;;;;39.83;17.33;;;;;;;;;;5078888;28;20040;-54
2024/03/13 05:00:25;;;;;;;38.58;16.40;;;;;;;;;;5091234;28;20028;-54
2024/03/13 05:02:52;;;;;;;38.67;16.02;;;;;;;;;;5096023;28;20024;-53
2024/03/13 05:05:18;;;;;;;37.10;16.88;;;;;;;;;;5089805;28;20119;-53
2024/03/13 05:07:44;;;;;;;35.38;16.30;;;;;;;;;;5089785;28;20024;-56
2024/03/13 05:10:11;;;;;;;35.58;16.90;;;;;;;;;;5093357;28;20027;-53
2024/03/13 05:12:37;;;;;;;40.17;17.35;;;;;;;;;;5094877;28;20032;-53
2024/03/13 05:15:04;;;;;;;36.78;16.27;;;;;;;;;;5095263;28;20028;-57
2024/03/13 05:17:30;;;;;;;34.55;16.60;;;;;;;;;;5093589;28;20399;-54
2024/03/13 05:19:59;;;;;;;39.05;16.90;;;;;;;;;;5087210;28;20518;-53
2024/03/13 05:22:29;;;;;;;38.22;16.73;;;;;;;;;;5085661;28;20105;-53
2024/03/13 05:24:55;;;;;;;37.20;16.00;;;;;;;;;;5089781;28;20022;-53
2024/03/13 05:27:22;;;;;;;37.58;16.90;;;;;;;;;;5085827;28;20028;-54
2024/03/13 05:29:48;;;;;;;32.20;14.02;;;;;;;;;;5094527;28;20028;-54
2024/03/13 05:32:14;;;;;;;39.40;15.90;;;;;;;;;;5093996;28;20024;-55
2024/03/13 05:34:40;;;;;;;39.95;16.30;;;;;;;;;;5090322;28;20051;-55
2024/03/13 05:37:07;;;;;;;36.45;16.13;;;;;;;;;;5089066;28;20041;-54
2024/03/13 05:39:34;;;;;;;38.20;15.50;;;;;;;;;;5093605;28;20085;-53
2024/03/13 05:42:00;;;;;;;37.22;15.80;;;;;;;;;;5093892;28;20036;-55
2024/03/13 05:44:27;;;;;;;36.17;15.07;;;;;;;;;;5093321;28;20042;-53
2024/03/13 05:46:53;;;;;;;38.50;16.02;;;;;;;;;;5094168;28;20028;-55
2024/03/13 05:49:19;;;;;;;40.05;16.88;;;;;;;;;;5089377;28;20020;-58
2024/03/13 05:51:45;;;;;;;37.28;15.90;;;;;;;;;;5086536;28;20512;-57
2024/03/13 05:54:11;;;;;;;37.85;17.65;;;;;;;;;;5091429;28;20081;-58
2024/03/13 05:56:37;;;;;;;35.97;16.40;;;;;;;;;;5094047;28;20035;-57
2024/03/13 05:59:03;;;;;;;35.15;15.57;;;;;;;;;;5093932;28;20031;-58
2024/03/13 06:01:29;;;;;;;34.85;16.15;;;;;;;;;;5091634;28;20433;-58
2024/03/13 06:03:56;;;;;;;39.75;16.90;;;;;;;;;;5080942;28;20111;-58
2024/03/13 06:06:23;;;;;;;34.50;14.95;;;;;;;;;;5089445;28;20504;-58
2024/03/13 06:08:49;;;;;;;33.47;14.75;;;;;;;;;;5093413;28;20024;-57
2024/03/13 06:11:18;;;;;;;32.80;15.93;;;;;;;;;;5093690;28;20059;-56
2024/03/13 06:13:45;;;;;;;41.13;16.60;;;;;;;;;;5085289;28;20040;-56
2024/03/13 06:16:11;;;;;;;39.70;16.27;;;;;;;;;;5093255;28;20388;-57
2024/03/13 06:18:37;;;;;;;37.70;15.05;;;;;;;;;;5093303;28;20059;-57
2024/03/13 06:21:04;;;;;;;40.05;16.55;;;;;;;;;;5090567;28;20585;-57
2024/03/13 06:23:30;;;;;;;36.25;15.68;;;;;;;;;;5087281;28;20023;-56
2024/03/13 06:25:58;;;;;;;33.05;15.60;;;;;;;;;;5093356;28;20392;-57
2024/03/13 06:31:08;;;;;;;36.17;16.95;;;;;;;;;;5090623;28;20139;-58
2024/03/13 06:33:34;;;;;;;41.70;18.50;;;;;;;;;;5091358;28;20043;-57
2024/03/13 06:36:00;;;;;;;39.90;16.75;;;;;;;;;;5092302;28;20031;-57
2024/03/13 06:38:26;;;;;;;41.45;17.40;;;;;;;;;;5093250;28;20051;-58
2024/03/13 06:40:52;;;;;;;44.13;18.20;;;;;;;;;;5097739;28;20085;-57
2024/03/13 06:43:19;;;;;;;45.03;17.35;;;;;;;;;;5090156;28;20107;-58
2024/03/13 06:45:49;;;;;;;43.00;18.60;;;;;;;;;;5092779;28;20450;-59
2024/03/13 06:48:15;;;;;;;35.67;16.20;;;;;;;;;;5093366;28;20131;-58
2024/03/13 06:50:44;;;;;;;44.00;19.13;;;;;;;;;;5090455;28;20024;-58
2024/03/13 06:53:10;;;;;;;41.05;18.48;;;;;;;;;;5091113;28;20028;-57
2024/03/13 06:55:36;;;;;;;40.40;17.63;;;;;;;;;;5087382;28;20036;-59
2024/03/13 06:58:02;;;;;;;41.17;18.90;;;;;;;;;;5082827;28;20452;-55
2024/03/13 07:00:28;;;;;;;40.65;18.98;;;;;;;;;;5091784;28;20036;-55
2024/03/13 07:03:01;;;;;;;45.13;19.10;;;;;;;;;;5086766;28;20028;-56
2024/03/13 07:05:27;;;;;;;42.22;19.15;;;;;;;;;;5085938;28;20017;-55
2024/03/13 07:07:53;;;;;;;42.60;18.10;;;;;;;;;;5081965;28;20036;-56
2024/03/13 07:10:19;;;;;;;44.28;18.92;;;;;;;;;;5088998;28;20027;-55
2024/03/13 07:12:45;;;;;;;43.53;20.42;;;;;;;;;;5089827;28;20028;-55
2024/03/13 07:15:11;;;;;;;47.72;20.55;;;;;;;;;;5092747;28;20024;-55
2024/03/13 07:17:37;;;;;;;50.63;22.00;;;;;;;;;;5092775;28;20028;-56
2024/03/13 07:20:04;;;;;;;51.63;21.08;;;;;;;;;;5089300;28;20044;-56
2024/03/13 07:22:30;;;;;;;57.17;23.10;;;;;;;;;;5092027;28;20361;-55
2024/03/13 07:24:56;;;;;;;52.10;22.52;;;;;;;;;;5091159;28;20020;-55
2024/03/13 07:27:22;;;;;;;47.78;22.13;;;;;;;;;;5080957;28;20477;-56
2024/03/13 07:29:49;;;;;;;55.25;23.98;;;;;;;;;;5092102;28;20020;-56
2024/03/13 07:32:16;;;;;;;69.20;23.33;;;;;;;;;;5091725;28;20024;-56
2024/03/13 07:34:42;;;;;;;53.38;22.60;;;;;;;;;;5091394;28;20032;-56
2024/03/13 07:37:10;;;;;;;54.20;22.92;;;;;;;;;;5081331;28;20028;-56
2024/03/13 07:39:36;;;;;;;56.47;24.30;;;;;;;;;;5087155;28;20036;-56
2024/03/13 07:42:02;;;;;;;56.78;24.83;;;;;;;;;;5092363;28;20145;-56
2024/03/13 07:44:30;;;;;;;58.60;24.38;;;;;;;;;;5091719;28;20020;-56
2024/03/13 07:46:56;;;;;;;63.03;25.05;;;;;;;;;;5092013;28;20032;-56
2024/03/13 07:49:22;;;;;;;63.97;24.83;;;;;;;;;;5091864;28;20025;-56
2024/03/13 07:51:48;;;;;;;58.60;24.55;;;;;;;;;;5085800;28;20032;-56
2024/03/13 07:54:14;;;;;;;56.40;23.45;;;;;;;;;;5087554;28;20028;-56
2024/03/13 07:56:40;;;;;;;62.75;24.98;;;;;;;;;;5090094;28;20125;-56
2024/03/13 07:59:06;;;;;;;58.38;23.13;;;;;;;;;;5091917;28;20035;-56
2024/03/13 08:01:32;;;;;;;57.25;23.48;;;;;;;;;;5091518;28;20039;-56
2024/03/13 08:03:58;;;;;;;50.80;21.65;;;;;;;;;;5091223;28;20488;-56
2024/03/13 08:06:24;;;;;;;54.42;23.15;;;;;;;;;;5082325;28;20029;-56
2024/03/13 08:08:51;;;;;;;51.92;22.30;;;;;;;;;;5089075;28;20042;-55
2024/03/13 08:11:18;;;;;;;51.90;22.63;;;;;;;;;;5086905;28;20035;-54
2024/03/13 08:13:44;;;;;;;57.28;22.17;;;;;;;;;;5091268;28;20030;-55
2024/03/13 08:16:09;;;;;;;48.72;22.33;;;;;;;;;;5091341;28;20727;-55
2024/03/13 08:18:35;;;;;;;47.25;20.88;;;;;;;;;;5091399;28;20408;-53
2024/03/13 08:21:01;;;;;;;45.70;20.33;;;;;;;;;;5086127;28;20036;-55
2024/03/13 08:23:27;;;;;;;44.78;20.80;;;;;;;;;;5090932;28;20032;-55
2024/03/13 08:25:53;;;;;;;44.65;19.95;;;;;;;;;;5087137;28;20115;-55
2024/03/13 08:28:19;;;;;;;40.55;19.17;;;;;;;;;;5091158;28;20027;-54
2024/03/13 08:30:46;;;;;;;42.63;19.20;;;;;;;;;;5088757;28;20032;-55
2024/03/13 08:33:15;;;;;;;41.25;18.20;;;;;;;;;;5082606;28;20063;-56
2024/03/13 08:35:41;;;;;;;41.92;19.23;;;;;;;;;;5087891;28;20066;-57
2024/03/13 08:38:08;;;;;;;38.90;18.48;;;;;;;;;;5091019;28;20047;-56
2024/03/13 08:40:34;;;;;;;38.20;17.48;;;;;;;;;;5095383;28;20060;-54
2024/03/13 08:43:00;;;;;;;37.42;16.95;;;;;;;;;;5083808;28;20028;-55
2024/03/13 08:45:26;;;;;;;38.72;16.58;;;;;;;;;;5072838;28;20104;-55
2024/03/13 08:47:53;;;;;;;32.58;16.27;;;;;;;;;;5090843;28;20115;-55
2024/03/13 08:50:19;;;;;;;34.42;17.27;;;;;;;;;;5083977;28;20032;-55
2024/03/13 08:52:46;;;;;;;36.00;16.92;;;;;;;;;;5090062;28;20077;-54
2024/03/13 08:55:14;;;;;;;41.50;18.02;;;;;;;;;;5089033;28;20054;-55
2024/03/13 08:57:40;;;;;;;39.88;17.52;;;;;;;;;;5091058;28;20501;-55
2024/03/13 09:00:10;;;;;;;35.35;15.73;;;;;;;;;;5090758;28;20031;-55
2024/03/13 09:02:36;;;;;;;37.70;16.83;;;;;;;;;;5079312;28;20055;-55
2024/03/13 09:05:03;;;;;;;36.97;15.70;;;;;;;;;;5088048;28;20641;-54
2024/03/13 09:07:30;;;;;;;32.00;15.75;;;;;;;;;;5089943;28;20043;-55
2024/03/13 09:09:56;;;;;;;30.77;15.55;;;;;;;;;;5090074;28;20051;-55
2024/03/13 09:12:22;;;;;;;31.58;15.48;;;;;;;;;;5085797;28;20066;-54
2024/03/13 09:14:49;;;;;;;35.13;15.98;;;;;;;;;;5093333;28;20119;-55
2024/03/13 09:17:15;;;;;;;33.58;16.35;;;;;;;;;;5072618;28;20536;-58
2024/03/13 09:19:41;;;;;;;28.25;14.38;;;;;;;;;;5082057;28;20044;-57
2024/03/13 09:22:11;;;;;;;31.48;15.27;;;;;;;;;;5077719;28;20476;-55
2024/03/13 09:24:37;;;;;;;29.33;14.60;;;;;;;;;;5077866;28;20088;-57
2024/03/13 09:27:04;;;;;;;28.27;14.25;;;;;;;;;;5089303;28;20039;-57
2024/03/13 09:29:31;;;;;;;31.67;15.30;;;;;;;;;;5090636;28;20107;-57
2024/03/13 09:31:57;;;;;;;32.30;14.95;;;;;;;;;;5091000;28;20031;-57
2024/03/13 09:34:23;;;;;;;27.10;14.25;;;;;;;;;;5089934;28;20110;-57
2024/03/13 09:36:49;;;;;;;28.77;14.00;;;;;;;;;;5089562;28;20071;-57
2024/03/13 09:39:15;;;;;;;30.13;13.68;;;;;;;;;;5087457;28;20482;-57
2024/03/13 09:41:43;;;;;;;23.92;12.25;;;;;;;;;;5096189;28;20020;-57
2024/03/13 09:44:11;;;;;;;28.58;13.35;;;;;;;;;;5092402;28;20395;-57
2024/03/13 09:46:39;;;;;;;27.27;12.98;;;;;;;;;;5090573;28;20024;-57
2024/03/13 09:49:06;;;;;;;27.70;11.57;;;;;;;;;;5090373;28;20047;-57
2024/03/13 09:51:34;;;;;;;24.42;12.35;;;;;;;;;;5088827;28;20059;-57
2024/03/13 09:54:02;;;;;;;27.70;13.23;;;;;;;;;;5088286;28;21345;-57
2024/03/13 09:56:29;;;;;;;26.40;13.02;;;;;;;;;;5092068;28;20028;-57
2024/03/13 09:58:56;;;;;;;26.60;13.10;;;;;;;;;;5091243;28;20036;-57
2024/03/13 10:01:26;;;;;;;30.60;14.15;;;;;;;;;;5092162;28;20028;-58
2024/03/13 10:03:59;;;;;;;26.60;12.13;;;;;;;;;;5091670;28;20024;-58
2024/03/13 10:06:26;;;;;;;29.73;13.63;;;;;;;;;;5090055;28;20107;-57
2024/03/13 10:08:53;;;;;;;28.52;14.50;;;;;;;;;;5089696;28;20052;-58
2024/03/13 10:11:21;;;;;;;28.05;13.50;;;;;;;;;;5085722;28;20365;-57
2024/03/13 10:13:47;;;;;;;26.83;13.75;;;;;;;;;;5090541;28;20802;-57
2024/03/13 10:16:13;;;;;;;25.40;12.48;;;;;;;;;;5083536;28;20224;-57
2024/03/13 10:18:47;;;;;;;29.13;14.38;;;;;;;;;;5079023;28;20527;-58
2024/03/13 10:21:17;;;;;;;24.27;13.20;;;;;;;;;;5079151;28;20032;-58
2024/03/13 10:23:45;;;;;;;25.52;13.40;;;;;;;;;;5080896;28;20314;-58
2024/03/13 10:26:12;;;;;;;32.28;14.82;;;;;;;;;;5078385;28;20366;-56
2024/03/13 10:28:38;;;;;;;26.30;13.52;;;;;;;;;;5083211;28;20043;-56
2024/03/13 10:31:04;;;;;;;25.90;13.70;;;;;;;;;;5089410;28;20368;-58
2024/03/13 10:33:31;;;;;;;25.73;13.32;;;;;;;;;;5073432;28;20020;-58
2024/03/13 10:35:57;;;;;;;28.15;14.65;;;;;;;;;;5089218;28;20024;-58
2024/03/13 10:38:24;;;;;;;32.95;14.45;;;;;;;;;;5084634;28;20028;-58
2024/03/13 10:40:50;;;;;;;26.45;13.15;;;;;;;;;;5091019;28;20437;-57
2024/03/13 10:43:16;;;;;;;26.58;12.20;;;;;;;;;;5087320;28;20031;-57
2024/03/13 10:45:47;;;;;;;23.73;11.80;;;;;;;;;;5083286;28;20028;-58
2024/03/13 10:48:13;;;;;;;20.48;10.65;;;;;;;;;;5091678;28;20039;-57
2024/03/13 10:50:41;;;;;;;20.48;11.10;;;;;;;;;;5087328;28;20483;-57
2024/03/13 10:53:07;;;;;;;17.55;9.98;;;;;;;;;;5084886;28;20035;-57
2024/03/13 10:55:35;;;;;;;18.38;10.05;;;;;;;;;;5086265;28;20483;-57
2024/03/13 10:58:01;;;;;;;21.80;10.75;;;;;;;;;;5088352;28;20094;-58
2024/03/13 11:00:30;;;;;;;23.08;10.90;;;;;;;;;;5086241;28;20028;-57
2024/03/13 11:02:58;;;;;;;24.20;10.32;;;;;;;;;;5087948;28;20095;-57
2024/03/13 11:05:25;;;;;;;25.90;11.23;;;;;;;;;;5079381;28;20028;-57
2024/03/13 11:07:52;;;;;;;24.38;10.75;;;;;;;;;;5087434;28;20179;-57
2024/03/13 11:10:21;;;;;;;23.80;11.23;;;;;;;;;;5087252;28;20035;-57
2024/03/13 11:12:51;;;;;;;19.67;10.52;;;;;;;;;;5090997;28;20126;-57
2024/03/13 11:15:30;;;;;;;23.55;10.75;;;;;;;;;;5092781;28;20043;-58
2024/03/13 11:17:56;;;;;;;23.13;11.48;;;;;;;;;;5092345;28;20190;-57
2024/03/13 11:20:25;;;;;;;22.05;10.57;;;;;;;;;;5092390;28;20073;-58
2024/03/13 11:22:58;;;;;;;21.42;10.30;;;;;;;;;;5091024;28;20517;-58
2024/03/13 11:25:25;;;;;;;18.75;10.05;;;;;;;;;;5087616;28;20060;-58
2024/03/13 11:27:55;;;;;;;22.08;9.85;;;;;;;;;;5084071;28;20082;-58
2024/03/13 11:30:21;;;;;;;16.45;10.20;;;;;;;;;;5091047;28;20393;-57
2024/03/13 11:32:51;;;;;;;14.32;8.85;;;;;;;;;;5091849;28;20077;-58
2024/03/13 11:35:18;;;;;;;16.77;8.95;;;;;;;;;;5092095;28;20093;-57
2024/03/13 11:37:47;;;;;;;17.13;9.57;;;;;;;;;;5090303;28;20544;-56
2024/03/13 11:40:15;;;;;;;15.52;9.00;;;;;;;;;;5088661;28;20221;-56
2024/03/13 11:42:43;;;;;;;16.27;9.15;;;;;;;;;;5090338;28;20479;-57
2024/03/13 11:45:15;;;;;;;13.57;9.05;;;;;;;;;;5089243;28;20129;-58
2024/03/13 11:47:45;;;;;;;17.98;10.30;;;;;;;;;;5090592;28;20028;-56
2024/03/13 11:50:11;;;;;;;15.80;9.25;;;;;;;;;;5091728;28;20515;-57
2024/03/13 11:52:37;;;;;;;15.63;9.63;;;;;;;;;;5091358;28;20028;-56
2024/03/13 11:55:05;;;;;;;14.18;8.82;;;;;;;;;;5093883;28;20127;-57
2024/03/13 11:57:31;;;;;;;18.88;8.90;;;;;;;;;;5083711;28;20195;-57
2024/03/13 11:59:57;;;;;;;13.95;8.50;;;;;;;;;;5088376;28;20020;-57
2024/03/13 12:02:32;;;;;;;13.82;8.20;;;;;;;;;;5090137;28;20134;-56
2024/03/13 12:05:06;;;;;;;12.13;7.78;;;;;;;;;;5091171;28;20387;-55
2024/03/13 12:07:42;;;;;;;17.10;9.40;;;;;;;;;;5089446;28;20024;-56
2024/03/13 12:10:16;;;;;;;34.20;10.45;;;;;;;;;;5090967;28;20384;-56
2024/03/13 12:12:41;;;;;;;22.23;10.20;;;;;;;;;;5085758;28;20116;-55
2024/03/13 12:15:08;;;;;;;13.70;8.27;;;;;;;;;;5089240;28;20040;-59
2024/03/13 12:17:34;;;;;;;13.93;7.80;;;;;;;;;;5089332;28;20032;-57
2024/03/13 12:20:00;;;;;;;13.85;8.02;;;;;;;;;;5090322;28;20171;-56
2024/03/13 12:22:26;;;;;;;12.95;7.68;;;;;;;;;;5091060;28;20036;-57
2024/03/13 12:24:53;;;;;;;13.43;8.32;;;;;;;;;;5088344;28;20085;-57
2024/03/13 12:27:19;;;;;;;13.00;7.82;;;;;;;;;;5091376;28;20028;-57
2024/03/13 12:29:46;;;;;;;17.45;10.02;;;;;;;;;;5091258;28;20028;-56
2024/03/13 12:32:13;;;;;;;17.80;9.98;;;;;;;;;;5091093;28;20039;-56
2024/03/13 12:34:43;;;;;;;17.17;9.23;;;;;;;;;;5089157;28;20036;-56
2024/03/13 12:37:15;;;;;;;15.75;8.13;;;;;;;;;;5091268;28;20042;-57
2024/03/13 12:39:41;;;;;;;14.02;8.80;;;;;;;;;;5090343;28;20027;-58
2024/03/13 12:42:09;;;;;;;13.75;8.05;;;;;;;;;;5094354;28;20084;-56
2024/03/13 12:44:35;;;;;;;16.35;7.60;;;;;;;;;;5085906;28;20024;-56
2024/03/13 12:47:02;;;;;;;13.52;7.93;;;;;;;;;;5086968;28;20020;-57
2024/03/13 12:49:31;;;;;;;15.70;8.52;;;;;;;;;;5088960;28;20090;-58
2024/03/13 12:51:59;;;;;;;13.90;8.20;;;;;;;;;;5090446;28;20028;-58
2024/03/13 12:54:26;;;;;;;15.68;8.38;;;;;;;;;;5086727;28;20062;-58
2024/03/13 12:56:52;;;;;;;13.23;7.88;;;;;;;;;;5087259;28;20036;-57
2024/03/13 12:59:21;;;;;;;15.52;8.57;;;;;;;;;;5088216;28;20058;-58
2024/03/13 13:01:49;;;;;;;17.73;10.18;;;;;;;;;;5090422;28;20023;-58
2024/03/13 13:04:16;;;;;;;14.45;8.75;;;;;;;;;;5090013;28;20020;-57
2024/03/13 13:06:42;;;;;;;14.15;8.05;;;;;;;;;;5081599;28;20497;-58
2024/03/13 13:09:09;;;;;;;15.52;7.90;;;;;;;;;;5090451;28;20476;-58
2024/03/13 13:11:40;;;;;;;15.27;8.02;;;;;;;;;;5087785;28;20127;-58
2024/03/13 13:14:08;;;;;;;12.00;7.00;;;;;;;;;;5088160;28;20110;-57
2024/03/13 13:16:34;;;;;;;15.38;7.40;;;;;;;;;;5090061;28;20035;-58
2024/03/13 13:19:00;;;;;;;13.70;8.02;;;;;;;;;;5089348;28;20044;-58
2024/03/13 13:21:27;;;;;;;12.63;6.95;;;;;;;;;;5089836;28;20040;-58
2024/03/13 13:23:54;;;;;;;12.30;7.75;;;;;;;;;;5089976;28;20020;-58
2024/03/13 13:26:20;;;;;;;12.15;7.03;;;;;;;;;;5089190;28;20663;-58
2024/03/13 13:28:46;;;;;;;13.10;7.95;;;;;;;;;;5090791;28;20024;-58
2024/03/13 13:31:13;;;;;;;14.93;7.65;;;;;;;;;;5092731;28;20158;-57
2024/03/13 13:33:39;;;;;;;18.65;7.70;;;;;;;;;;5093434;28;20487;-56
2024/03/13 13:36:06;;;;;;;11.68;7.50;;;;;;;;;;5091447;28;20503;-55
2024/03/13 13:38:32;;;;;;;13.82;7.68;;;;;;;;;;5092374;28;20035;-56
2024/03/13 13:40:59;;;;;;;10.75;6.97;;;;;;;;;;5096006;28;20030;-56
2024/03/13 13:43:28;;;;;;;12.43;7.82;;;;;;;;;;5093658;28;20025;-56
2024/03/13 13:45:54;;;;;;;11.20;7.00;;;;;;;;;;5092561;28;20038;-56
2024/03/13 13:48:25;;;;;;;11.32;7.43;;;;;;;;;;5093590;28;20024;-56
2024/03/13 13:50:51;;;;;;;13.63;7.43;;;;;;;;;;5092957;28;20522;-57
2024/03/13 13:53:17;;;;;;;13.10;8.10;;;;;;;;;;5084250;28;20084;-57
2024/03/13 13:55:44;;;;;;;12.32;6.93;;;;;;;;;;5084763;28;20518;-56
2024/03/13 13:58:10;;;;;;;12.60;8.10;;;;;;;;;;5094440;28;20028;-56
2024/03/13 14:00:37;;;;;;;11.38;7.70;;;;;;;;;;5087233;28;20107;-55
2024/03/13 14:03:03;;;;;;;10.73;7.07;;;;;;;;;;5101686;28;20035;-55
2024/03/13 14:05:30;;;;;;;10.60;6.43;;;;;;;;;;5093459;28;20517;-56
2024/03/13 14:07:56;;;;;;;12.70;8.15;;;;;;;;;;5084689;28;20028;-55
2024/03/13 14:10:22;;;;;;;9.98;6.53;;;;;;;;;;5083641;28;20091;-55
2024/03/13 14:12:50;;;;;;;8.88;5.80;;;;;;;;;;5085552;28;20028;-55
2024/03/13 14:15:19;;;;;;;12.45;8.50;;;;;;;;;;5092061;28;20028;-55
2024/03/13 14:17:45;;;;;;;14.10;8.38;;;;;;;;;;5088241;28;20032;-56
2024/03/13 14:20:12;;;;;;;15.02;7.82;;;;;;;;;;5093159;28;20137;-54
2024/03/13 14:22:38;;;;;;;15.27;7.72;;;;;;;;;;5091877;28;20069;-56
2024/03/13 14:25:05;;;;;;;11.88;7.43;;;;;;;;;;5091099;28;20074;-55
2024/03/13 14:27:31;;;;;;;14.20;7.60;;;;;;;;;;5087441;28;20043;-57
2024/03/13 14:29:58;;;;;;;13.40;8.15;;;;;;;;;;5077346;28;20032;-56
2024/03/13 14:32:25;;;;;;;16.48;7.65;;;;;;;;;;5087648;28;20096;-57
2024/03/13 14:34:54;;;;;;;13.95;7.78;;;;;;;;;;5092732;28;20369;-57
2024/03/13 14:37:20;;;;;;;16.20;8.35;;;;;;;;;;5082936;28;20427;-57
2024/03/13 14:39:46;;;;;;;15.80;7.15;;;;;;;;;;5090119;28;20043;-57